sensor_id;sensor_type;location;lat;lon;timestamp;temperature;humidity
14604;DHT22;7388;51.078;13.740;2023-09-19T00:01:08;22.80;50.30
14604;DHT22;7388;51.078;13.740;2023-09-19T00:03:37;22.80;50.30
14604;DHT22;7388;51.078;13.740;2023-09-19T00:06:03;22.80;50.40
14604;DHT22;7388;51.078;13.740;2023-09-19T00:08:33;22.80;50.50
14604;DHT22;7388;51.078;13.740;2023-09-19T00:11:00;22.80;50.30
14604;DHT22;7388;51.078;13.740;2023-09-19T00:13:34;22.80;50.50
14604;DHT22;7388;51.078;13.740;2023-09-19T00:16:07;22.70;50.30
14604;DHT22;7388;51.078;13.740;2023-09-19T00:18:33;22.70;50.40
14604;DHT22;7388;51.078;13.740;2023-09-19T00:21:00;22.60;50.40
14604;DHT22;7388;51.078;13.740;2023-09-19T00:23:26;22.50;50.50
14604;DHT22;7388;51.078;13.740;2023-09-19T00:25:53;22.50;50.60
14604;DHT22;7388;51.078;13.740;2023-09-19T00:28:23;22.50;50.60
14604;DHT22;7388;51.078;13.740;2023-09-19T00:30:48;22.50;50.60
14604;DHT22;7388;51.078;13.740;2023-09-19T00:33:17;22.50;50.60
14604;DHT22;7388;51.078;13.740;2023-09-19T00:35:54;22.50;50.60
14604;DHT22;7388;51.078;13.740;2023-09-19T00:38:21;22.50;50.60
14604;DHT22;7388;51.078;13.740;2023-09-19T00:40:48;22.50;50.60
14604;DHT22;7388;51.078;13.740;2023-09-19T00:43:16;22.40;50.40
14604;DHT22;7388;51.078;13.740;2023-09-19T00:45:45;22.40;50.50
14604;DHT22;7388;51.078;13.740;2023-09-19T00:48:11;22.40;50.50
14604;DHT22;7388;51.078;13.740;2023-09-19T00:50:38;22.40;50.50
14604;DHT22;7388;51.078;13.740;2023-09-19T00:53:07;22.40;50.50
14604;DHT22;7388;51.078;13.740;2023-09-19T00:55:34;22.30;50.40
14604;DHT22;7388;51.078;13.740;2023-09-19T00:58:00;22.40;50.30
14604;DHT22;7388;51.078;13.740;2023-09-19T01:00:26;22.30;50.30
14604;DHT22;7388;51.078;13.740;2023-09-19T01:02:52;22.30;50.20
14604;DHT22;7388;51.078;13.740;2023-09-19T01:05:18;22.40;50.50
14604;DHT22;7388;51.078;13.740;2023-09-19T01:07:44;22.30;50.60
14604;DHT22;7388;51.078;13.740;2023-09-19T01:10:13;22.30;50.80
14604;DHT22;7388;51.078;13.740;2023-09-19T01:12:59;22.30;50.70
14604;DHT22;7388;51.078;13.740;2023-09-19T01:16:01;22.30;50.60
14604;DHT22;7388;51.078;13.740;2023-09-19T01:21:30;22.30;50.60
14604;DHT22;7388;51.078;13.740;2023-09-19T01:24:42;22.20;50.70
14604;DHT22;7388;51.078;13.740;2023-09-19T01:29:48;22.20;50.80
14604;DHT22;7388;51.078;13.740;2023-09-19T01:32:18;22.20;51.00
14604;DHT22;7388;51.078;13.740;2023-09-19T01:34:56;22.20;50.60
14604;DHT22;7388;51.078;13.740;2023-09-19T01:37:29;22.20;50.60
14604;DHT22;7388;51.078;13.740;2023-09-19T01:43:20;22.10;51.00
14604;DHT22;7388;51.078;13.740;2023-09-19T01:45:59;22.10;50.70
14604;DHT22;7388;51.078;13.740;2023-09-19T01:48:35;22.10;50.80
14604;DHT22;7388;51.078;13.740;2023-09-19T01:51:07;22.10;51.10
14604;DHT22;7388;51.078;13.740;2023-09-19T01:53:45;22.10;51.20
14604;DHT22;7388;51.078;13.740;2023-09-19T01:56:28;22.10;51.20
14604;DHT22;7388;51.078;13.740;2023-09-19T01:58:59;22.10;51.00
14604;DHT22;7388;51.078;13.740;2023-09-19T02:01:30;22.10;51.30
14604;DHT22;7388;51.078;13.740;2023-09-19T02:03:56;22.10;51.30
14604;DHT22;7388;51.078;13.740;2023-09-19T02:06:23;22.10;50.90
14604;DHT22;7388;51.078;13.740;2023-09-19T02:08:50;22.10;51.00
14604;DHT22;7388;51.078;13.740;2023-09-19T02:11:16;22.10;51.00
14604;DHT22;7388;51.078;13.740;2023-09-19T02:13:42;22.10;50.90
14604;DHT22;7388;51.078;13.740;2023-09-19T02:16:09;22.00;51.00
14604;DHT22;7388;51.078;13.740;2023-09-19T02:18:36;22.00;50.90
14604;DHT22;7388;51.078;13.740;2023-09-19T02:21:02;21.90;51.20
14604;DHT22;7388;51.078;13.740;2023-09-19T02:23:29;21.90;51.20
14604;DHT22;7388;51.078;13.740;2023-09-19T02:25:56;22.00;51.30
14604;DHT22;7388;51.078;13.740;2023-09-19T02:28:29;22.00;51.20
14604;DHT22;7388;51.078;13.740;2023-09-19T02:30:56;22.00;51.10
14604;DHT22;7388;51.078;13.740;2023-09-19T02:33:22;22.10;51.30
14604;DHT22;7388;51.078;13.740;2023-09-19T02:35:48;22.00;51.20
14604;DHT22;7388;51.078;13.740;2023-09-19T02:38:14;22.00;51.40
14604;DHT22;7388;51.078;13.740;2023-09-19T02:40:44;22.00;51.10
14604;DHT22;7388;51.078;13.740;2023-09-19T02:43:09;22.00;50.80
14604;DHT22;7388;51.078;13.740;2023-09-19T02:45:35;22.00;51.00
14604;DHT22;7388;51.078;13.740;2023-09-19T02:48:01;22.00;51.10
14604;DHT22;7388;51.078;13.740;2023-09-19T02:50:27;22.10;50.80
14604;DHT22;7388;51.078;13.740;2023-09-19T02:52:53;22.10;51.00
14604;DHT22;7388;51.078;13.740;2023-09-19T02:55:20;22.10;50.60
14604;DHT22;7388;51.078;13.740;2023-09-19T02:57:51;22.10;50.70
14604;DHT22;7388;51.078;13.740;2023-09-19T03:00:19;22.10;50.60
14604;DHT22;7388;51.078;13.740;2023-09-19T03:02:49;22.10;50.60
14604;DHT22;7388;51.078;13.740;2023-09-19T03:05:14;22.10;51.10
14604;DHT22;7388;51.078;13.740;2023-09-19T03:07:40;22.10;51.00
14604;DHT22;7388;51.078;13.740;2023-09-19T03:10:09;22.10;50.70
14604;DHT22;7388;51.078;13.740;2023-09-19T03:12:35;22.10;51.00
14604;DHT22;7388;51.078;13.740;2023-09-19T03:15:01;22.10;50.60
14604;DHT22;7388;51.078;13.740;2023-09-19T03:17:27;22.00;50.60
14604;DHT22;7388;51.078;13.740;2023-09-19T03:19:53;22.00;50.40
14604;DHT22;7388;51.078;13.740;2023-09-19T03:22:19;22.10;50.40
14604;DHT22;7388;51.078;13.740;2023-09-19T03:24:45;22.10;50.40
14604;DHT22;7388;51.078;13.740;2023-09-19T03:27:12;22.10;50.60
14604;DHT22;7388;51.078;13.740;2023-09-19T03:29:43;22.10;50.60
14604;DHT22;7388;51.078;13.740;2023-09-19T03:32:08;22.20;50.40
14604;DHT22;7388;51.078;13.740;2023-09-19T03:34:38;22.20;50.10
14604;DHT22;7388;51.078;13.740;2023-09-19T03:37:09;22.20;50.40
14604;DHT22;7388;51.078;13.740;2023-09-19T03:39:35;22.10;50.40
14604;DHT22;7388;51.078;13.740;2023-09-19T03:42:02;22.10;50.20
14604;DHT22;7388;51.078;13.740;2023-09-19T03:44:29;22.10;50.50
14604;DHT22;7388;51.078;13.740;2023-09-19T03:46:56;22.10;50.20
14604;DHT22;7388;51.078;13.740;2023-09-19T03:49:22;22.10;50.70
14604;DHT22;7388;51.078;13.740;2023-09-19T03:51:48;22.10;50.50
14604;DHT22;7388;51.078;13.740;2023-09-19T03:54:14;22.10;50.60
14604;DHT22;7388;51.078;13.740;2023-09-19T03:56:40;22.10;50.40
14604;DHT22;7388;51.078;13.740;2023-09-19T03:59:05;22.10;50.10
14604;DHT22;7388;51.078;13.740;2023-09-19T04:01:34;22.10;50.30
14604;DHT22;7388;51.078;13.740;2023-09-19T04:03:59;22.00;50.60
14604;DHT22;7388;51.078;13.740;2023-09-19T04:06:33;22.00;50.50
14604;DHT22;7388;51.078;13.740;2023-09-19T04:09:01;22.00;50.30
14604;DHT22;7388;51.078;13.740;2023-09-19T04:11:27;22.00;50.40
14604;DHT22;7388;51.078;13.740;2023-09-19T04:13:52;21.90;50.40
14604;DHT22;7388;51.078;13.740;2023-09-19T04:16:19;21.90;50.80
14604;DHT22;7388;51.078;13.740;2023-09-19T04:18:45;21.90;50.60
14604;DHT22;7388;51.078;13.740;2023-09-19T04:21:11;21.80;50.40
14604;DHT22;7388;51.078;13.740;2023-09-19T04:23:36;21.90;50.40
14604;DHT22;7388;51.078;13.740;2023-09-19T04:26:02;21.90;50.80
14604;DHT22;7388;51.078;13.740;2023-09-19T04:28:30;21.90;50.50
14604;DHT22;7388;51.078;13.740;2023-09-19T04:30:56;21.90;50.50
14604;DHT22;7388;51.078;13.740;2023-09-19T04:33:25;21.90;50.40
14604;DHT22;7388;51.078;13.740;2023-09-19T04:35:52;21.90;50.40
14604;DHT22;7388;51.078;13.740;2023-09-19T04:38:18;21.80;50.50
14604;DHT22;7388;51.078;13.740;2023-09-19T04:40:45;21.80;50.50
14604;DHT22;7388;51.078;13.740;2023-09-19T04:43:11;21.80;50.60
14604;DHT22;7388;51.078;13.740;2023-09-19T04:45:38;21.80;50.70
14604;DHT22;7388;51.078;13.740;2023-09-19T04:48:05;21.70;50.70
14604;DHT22;7388;51.078;13.740;2023-09-19T04:50:32;21.80;50.80
14604;DHT22;7388;51.078;13.740;2023-09-19T04:53:00;21.80;50.50
14604;DHT22;7388;51.078;13.740;2023-09-19T04:55:26;21.80;50.40
14604;DHT22;7388;51.078;13.740;2023-09-19T04:57:53;21.80;50.50
14604;DHT22;7388;51.078;13.740;2023-09-19T05:00:22;21.80;50.60
14604;DHT22;7388;51.078;13.740;2023-09-19T05:02:56;21.70;50.70
14604;DHT22;7388;51.078;13.740;2023-09-19T05:05:22;21.70;50.40
14604;DHT22;7388;51.078;13.740;2023-09-19T05:07:49;21.80;50.40
14604;DHT22;7388;51.078;13.740;2023-09-19T05:10:16;21.80;50.50
14604;DHT22;7388;51.078;13.740;2023-09-19T05:12:44;21.80;50.40
14604;DHT22;7388;51.078;13.740;2023-09-19T05:15:13;21.80;50.40
14604;DHT22;7388;51.078;13.740;2023-09-19T05:17:48;21.90;50.70
14604;DHT22;7388;51.078;13.740;2023-09-19T05:20:15;21.90;50.40
14604;DHT22;7388;51.078;13.740;2023-09-19T05:22:57;21.90;50.50
14604;DHT22;7388;51.078;13.740;2023-09-19T05:25:23;21.90;50.40
14604;DHT22;7388;51.078;13.740;2023-09-19T05:27:53;21.80;50.30
14604;DHT22;7388;51.078;13.740;2023-09-19T05:30:19;21.80;50.60
14604;DHT22;7388;51.078;13.740;2023-09-19T05:32:45;21.70;50.40
14604;DHT22;7388;51.078;13.740;2023-09-19T05:35:11;21.70;50.50
14604;DHT22;7388;51.078;13.740;2023-09-19T05:37:38;21.70;50.40
14604;DHT22;7388;51.078;13.740;2023-09-19T05:40:05;21.70;50.90
14604;DHT22;7388;51.078;13.740;2023-09-19T05:42:35;21.70;50.70
14604;DHT22;7388;51.078;13.740;2023-09-19T05:45:00;21.70;50.60
14604;DHT22;7388;51.078;13.740;2023-09-19T05:47:26;21.70;50.60
14604;DHT22;7388;51.078;13.740;2023-09-19T05:49:52;21.80;50.60
14604;DHT22;7388;51.078;13.740;2023-09-19T05:52:19;21.90;50.70
14604;DHT22;7388;51.078;13.740;2023-09-19T05:54:47;21.90;50.60
14604;DHT22;7388;51.078;13.740;2023-09-19T05:57:15;21.90;50.60
14604;DHT22;7388;51.078;13.740;2023-09-19T05:59:40;21.90;50.50
14604;DHT22;7388;51.078;13.740;2023-09-19T06:02:08;21.90;50.60
14604;DHT22;7388;51.078;13.740;2023-09-19T06:04:35;21.90;50.30
14604;DHT22;7388;51.078;13.740;2023-09-19T06:07:01;21.90;50.40
14604;DHT22;7388;51.078;13.740;2023-09-19T06:09:29;22.00;50.30
14604;DHT22;7388;51.078;13.740;2023-09-19T06:11:58;22.00;50.20
14604;DHT22;7388;51.078;13.740;2023-09-19T06:14:24;22.10;50.70
14604;DHT22;7388;51.078;13.740;2023-09-19T06:16:50;22.10;50.60
14604;DHT22;7388;51.078;13.740;2023-09-19T06:19:16;22.10;50.50
14604;DHT22;7388;51.078;13.740;2023-09-19T06:21:41;22.20;50.60
14604;DHT22;7388;51.078;13.740;2023-09-19T06:24:07;22.20;50.20
14604;DHT22;7388;51.078;13.740;2023-09-19T06:26:33;22.20;50.60
14604;DHT22;7388;51.078;13.740;2023-09-19T06:28:59;22.20;50.40
14604;DHT22;7388;51.078;13.740;2023-09-19T06:31:25;22.30;50.40
14604;DHT22;7388;51.078;13.740;2023-09-19T06:33:52;22.30;50.50
14604;DHT22;7388;51.078;13.740;2023-09-19T06:36:18;22.40;50.60
14604;DHT22;7388;51.078;13.740;2023-09-19T06:38:45;22.50;50.40
14604;DHT22;7388;51.078;13.740;2023-09-19T06:41:10;22.50;50.50
14604;DHT22;7388;51.078;13.740;2023-09-19T06:43:36;22.60;50.60
14604;DHT22;7388;51.078;13.740;2023-09-19T06:46:02;22.70;49.90
14604;DHT22;7388;51.078;13.740;2023-09-19T06:48:29;22.70;49.80
14604;DHT22;7388;51.078;13.740;2023-09-19T06:50:55;22.80;49.70
14604;DHT22;7388;51.078;13.740;2023-09-19T06:53:21;22.90;49.50
14604;DHT22;7388;51.078;13.740;2023-09-19T06:55:49;22.90;49.50
14604;DHT22;7388;51.078;13.740;2023-09-19T06:58:15;23.00;49.20
14604;DHT22;7388;51.078;13.740;2023-09-19T07:00:42;23.10;48.90
14604;DHT22;7388;51.078;13.740;2023-09-19T07:03:08;23.20;49.00
14604;DHT22;7388;51.078;13.740;2023-09-19T07:05:37;23.20;48.40
14604;DHT22;7388;51.078;13.740;2023-09-19T07:08:08;23.30;47.80
14604;DHT22;7388;51.078;13.740;2023-09-19T07:10:36;23.30;47.80
14604;DHT22;7388;51.078;13.740;2023-09-19T07:13:05;23.40;46.70
14604;DHT22;7388;51.078;13.740;2023-09-19T07:15:34;23.40;46.90
14604;DHT22;7388;51.078;13.740;2023-09-19T07:18:15;23.50;47.50
14604;DHT22;7388;51.078;13.740;2023-09-19T07:20:42;23.60;47.90
14604;DHT22;7388;51.078;13.740;2023-09-19T07:23:15;23.70;47.80
14604;DHT22;7388;51.078;13.740;2023-09-19T07:25:41;23.70;46.30
14604;DHT22;7388;51.078;13.740;2023-09-19T07:28:07;23.70;46.70
14604;DHT22;7388;51.078;13.740;2023-09-19T07:30:36;23.80;46.00
14604;DHT22;7388;51.078;13.740;2023-09-19T07:33:03;23.90;45.00
14604;DHT22;7388;51.078;13.740;2023-09-19T07:35:30;23.90;44.00
14604;DHT22;7388;51.078;13.740;2023-09-19T07:37:56;23.90;43.90
14604;DHT22;7388;51.078;13.740;2023-09-19T07:40:27;24.00;43.80
14604;DHT22;7388;51.078;13.740;2023-09-19T07:42:58;24.10;43.10
14604;DHT22;7388;51.078;13.740;2023-09-19T07:45:28;24.20;40.20
14604;DHT22;7388;51.078;13.740;2023-09-19T07:47:56;24.20;40.30
14604;DHT22;7388;51.078;13.740;2023-09-19T07:50:22;24.20;40.30
14604;DHT22;7388;51.078;13.740;2023-09-19T07:52:49;24.30;40.80
14604;DHT22;7388;51.078;13.740;2023-09-19T07:55:19;24.30;38.60
14604;DHT22;7388;51.078;13.740;2023-09-19T07:57:48;24.30;39.10
14604;DHT22;7388;51.078;13.740;2023-09-19T08:00:15;24.30;40.30
14604;DHT22;7388;51.078;13.740;2023-09-19T08:02:41;24.40;39.60
14604;DHT22;7388;51.078;13.740;2023-09-19T08:05:09;24.40;39.10
14604;DHT22;7388;51.078;13.740;2023-09-19T08:07:38;24.40;40.20
14604;DHT22;7388;51.078;13.740;2023-09-19T08:10:05;24.50;40.40
14604;DHT22;7388;51.078;13.740;2023-09-19T08:12:37;24.60;40.40
14604;DHT22;7388;51.078;13.740;2023-09-19T08:15:03;24.70;40.20
14604;DHT22;7388;51.078;13.740;2023-09-19T08:17:34;24.80;39.50
14604;DHT22;7388;51.078;13.740;2023-09-19T08:20:00;24.90;39.80
14604;DHT22;7388;51.078;13.740;2023-09-19T08:22:26;25.00;39.00
14604;DHT22;7388;51.078;13.740;2023-09-19T08:24:52;25.00;39.00
14604;DHT22;7388;51.078;13.740;2023-09-19T08:27:18;25.10;38.60
14604;DHT22;7388;51.078;13.740;2023-09-19T08:29:45;25.20;39.10
14604;DHT22;7388;51.078;13.740;2023-09-19T08:32:11;25.30;39.00
14604;DHT22;7388;51.078;13.740;2023-09-19T08:34:37;25.40;38.80
14604;DHT22;7388;51.078;13.740;2023-09-19T08:37:04;25.50;37.20
14604;DHT22;7388;51.078;13.740;2023-09-19T08:39:30;25.60;37.80
14604;DHT22;7388;51.078;13.740;2023-09-19T08:42:00;25.60;38.30
14604;DHT22;7388;51.078;13.740;2023-09-19T08:44:29;25.60;36.50
14604;DHT22;7388;51.078;13.740;2023-09-19T08:47:08;25.50;37.10
14604;DHT22;7388;51.078;13.740;2023-09-19T08:49:44;25.40;36.90
14604;DHT22;7388;51.078;13.740;2023-09-19T08:52:20;25.20;37.20
14604;DHT22;7388;51.078;13.740;2023-09-19T08:54:48;25.10;37.80
14604;DHT22;7388;51.078;13.740;2023-09-19T08:57:17;25.00;38.10
14604;DHT22;7388;51.078;13.740;2023-09-19T08:59:48;25.00;39.40
14604;DHT22;7388;51.078;13.740;2023-09-19T09:02:16;25.00;38.50
14604;DHT22;7388;51.078;13.740;2023-09-19T09:04:45;25.10;38.30
14604;DHT22;7388;51.078;13.740;2023-09-19T09:07:13;25.20;38.10
14604;DHT22;7388;51.078;13.740;2023-09-19T09:09:40;25.30;38.60
14604;DHT22;7388;51.078;13.740;2023-09-19T09:12:12;25.50;38.00
14604;DHT22;7388;51.078;13.740;2023-09-19T09:14:45;25.70;37.80
14604;DHT22;7388;51.078;13.740;2023-09-19T09:17:16;25.80;37.10
14604;DHT22;7388;51.078;13.740;2023-09-19T09:19:46;26.00;37.60
14604;DHT22;7388;51.078;13.740;2023-09-19T09:22:13;26.10;35.30
14604;DHT22;7388;51.078;13.740;2023-09-19T09:24:52;26.10;36.40
14604;DHT22;7388;51.078;13.740;2023-09-19T09:27:20;26.10;36.80
14604;DHT22;7388;51.078;13.740;2023-09-19T09:29:47;25.90;35.70
14604;DHT22;7388;51.078;13.740;2023-09-19T09:32:26;25.80;34.20
14604;DHT22;7388;51.078;13.740;2023-09-19T09:34:56;25.70;35.20
14604;DHT22;7388;51.078;13.740;2023-09-19T09:37:23;25.50;35.80
14604;DHT22;7388;51.078;13.740;2023-09-19T09:39:55;25.50;35.30
14604;DHT22;7388;51.078;13.740;2023-09-19T09:42:31;25.40;35.10
14604;DHT22;7388;51.078;13.740;2023-09-19T09:45:16;25.40;36.10
14604;DHT22;7388;51.078;13.740;2023-09-19T09:47:44;25.40;37.00
14604;DHT22;7388;51.078;13.740;2023-09-19T09:50:24;25.50;35.00
14604;DHT22;7388;51.078;13.740;2023-09-19T09:52:55;25.70;34.90
14604;DHT22;7388;51.078;13.740;2023-09-19T09:58:51;25.90;35.00
14604;DHT22;7388;51.078;13.740;2023-09-19T10:01:20;25.90;35.70
14604;DHT22;7388;51.078;13.740;2023-09-19T10:03:47;26.10;36.30
14604;DHT22;7388;51.078;13.740;2023-09-19T10:06:17;26.20;35.60
14604;DHT22;7388;51.078;13.740;2023-09-19T10:09:08;26.30;35.80
14604;DHT22;7388;51.078;13.740;2023-09-19T10:11:43;26.30;35.40
14604;DHT22;7388;51.078;13.740;2023-09-19T10:14:11;26.40;35.60
14604;DHT22;7388;51.078;13.740;2023-09-19T10:16:45;26.50;36.00
14604;DHT22;7388;51.078;13.740;2023-09-19T10:19:23;26.60;34.80
14604;DHT22;7388;51.078;13.740;2023-09-19T10:21:50;26.70;35.20
14604;DHT22;7388;51.078;13.740;2023-09-19T10:24:17;26.90;35.10
14604;DHT22;7388;51.078;13.740;2023-09-19T10:26:45;26.90;33.90
14604;DHT22;7388;51.078;13.740;2023-09-19T10:29:13;27.00;33.30
14604;DHT22;7388;51.078;13.740;2023-09-19T10:31:42;27.00;34.00
14604;DHT22;7388;51.078;13.740;2023-09-19T10:34:15;27.10;34.50
14604;DHT22;7388;51.078;13.740;2023-09-19T10:36:44;27.20;34.70
14604;DHT22;7388;51.078;13.740;2023-09-19T10:39:14;27.30;34.30
14604;DHT22;7388;51.078;13.740;2023-09-19T10:41:51;27.40;31.60
14604;DHT22;7388;51.078;13.740;2023-09-19T10:44:23;27.40;33.10
14604;DHT22;7388;51.078;13.740;2023-09-19T10:46:51;27.50;31.20
14604;DHT22;7388;51.078;13.740;2023-09-19T10:49:22;27.40;32.20
14604;DHT22;7388;51.078;13.740;2023-09-19T10:51:50;27.40;32.20
14604;DHT22;7388;51.078;13.740;2023-09-19T10:54:22;27.50;31.70
14604;DHT22;7388;51.078;13.740;2023-09-19T10:56:53;27.50;31.10
14604;DHT22;7388;51.078;13.740;2023-09-19T10:59:20;27.60;32.00
14604;DHT22;7388;51.078;13.740;2023-09-19T11:01:53;27.80;31.40
14604;DHT22;7388;51.078;13.740;2023-09-19T11:04:27;27.90;31.90
14604;DHT22;7388;51.078;13.740;2023-09-19T11:09:52;28.10;32.40
14604;DHT22;7388;51.078;13.740;2023-09-19T11:26:43;27.70;31.40
14604;DHT22;7388;51.078;13.740;2023-09-19T11:29:29;27.60;27.50
14604;DHT22;7388;51.078;13.740;2023-09-19T11:31:57;27.40;30.20
14604;DHT22;7388;51.078;13.740;2023-09-19T11:40:10;27.60;30.20
14604;DHT22;7388;51.078;13.740;2023-09-19T11:42:42;27.60;29.40
14604;DHT22;7388;51.078;13.740;2023-09-19T11:48:15;27.60;29.30
14604;DHT22;7388;51.078;13.740;2023-09-19T11:50:45;27.60;26.70
14604;DHT22;7388;51.078;13.740;2023-09-19T11:53:13;27.60;27.80
14604;DHT22;7388;51.078;13.740;2023-09-19T11:55:43;27.50;27.20
14604;DHT22;7388;51.078;13.740;2023-09-19T11:58:09;27.50;28.00
14604;DHT22;7388;51.078;13.740;2023-09-19T12:00:38;27.60;28.30
14604;DHT22;7388;51.078;13.740;2023-09-19T12:03:12;27.70;29.50
14604;DHT22;7388;51.078;13.740;2023-09-19T12:05:39;27.90;29.60
14604;DHT22;7388;51.078;13.740;2023-09-19T12:08:07;28.10;30.50
14604;DHT22;7388;51.078;13.740;2023-09-19T12:10:54;28.10;28.90
14604;DHT22;7388;51.078;13.740;2023-09-19T12:13:23;28.10;30.50
14604;DHT22;7388;51.078;13.740;2023-09-19T12:15:49;28.10;31.40
14604;DHT22;7388;51.078;13.740;2023-09-19T12:18:30;28.20;31.00
14604;DHT22;7388;51.078;13.740;2023-09-19T12:20:57;28.20;30.40
14604;DHT22;7388;51.078;13.740;2023-09-19T12:23:24;28.10;30.30
14604;DHT22;7388;51.078;13.740;2023-09-19T12:25:51;28.10;30.40
14604;DHT22;7388;51.078;13.740;2023-09-19T12:28:20;28.20;30.80
14604;DHT22;7388;51.078;13.740;2023-09-19T12:30:48;28.30;31.20
14604;DHT22;7388;51.078;13.740;2023-09-19T12:33:21;28.40;30.30
14604;DHT22;7388;51.078;13.740;2023-09-19T12:35:47;28.50;28.30
14604;DHT22;7388;51.078;13.740;2023-09-19T12:38:26;28.50;28.00
14604;DHT22;7388;51.078;13.740;2023-09-19T12:40:58;28.50;30.80
14604;DHT22;7388;51.078;13.740;2023-09-19T12:43:31;28.70;30.80
14604;DHT22;7388;51.078;13.740;2023-09-19T12:45:59;28.70;29.60
14604;DHT22;7388;51.078;13.740;2023-09-19T12:48:26;28.60;28.00
14604;DHT22;7388;51.078;13.740;2023-09-19T12:51:07;28.50;28.00
14604;DHT22;7388;51.078;13.740;2023-09-19T12:53:35;28.50;29.90
14604;DHT22;7388;51.078;13.740;2023-09-19T12:56:06;28.40;28.80
14604;DHT22;7388;51.078;13.740;2023-09-19T12:58:34;28.40;28.60
14604;DHT22;7388;51.078;13.740;2023-09-19T13:01:00;28.40;30.20
14604;DHT22;7388;51.078;13.740;2023-09-19T13:03:29;28.50;29.30
14604;DHT22;7388;51.078;13.740;2023-09-19T13:06:01;28.60;30.60
14604;DHT22;7388;51.078;13.740;2023-09-19T13:08:34;28.70;30.30
14604;DHT22;7388;51.078;13.740;2023-09-19T13:11:05;28.70;30.80
14604;DHT22;7388;51.078;13.740;2023-09-19T13:14:22;28.90;30.60
14604;DHT22;7388;51.078;13.740;2023-09-19T13:17:03;28.90;29.70
14604;DHT22;7388;51.078;13.740;2023-09-19T13:19:46;28.70;29.90
14604;DHT22;7388;51.078;13.740;2023-09-19T13:22:42;28.60;29.40
14604;DHT22;7388;51.078;13.740;2023-09-19T13:25:15;28.40;29.40
14604;DHT22;7388;51.078;13.740;2023-09-19T13:30:31;28.30;29.20
14604;DHT22;7388;51.078;13.740;2023-09-19T13:33:11;28.20;28.20
14604;DHT22;7388;51.078;13.740;2023-09-19T13:35:39;28.10;28.70
14604;DHT22;7388;51.078;13.740;2023-09-19T13:38:07;28.00;29.50
14604;DHT22;7388;51.078;13.740;2023-09-19T13:40:38;28.00;30.10
14604;DHT22;7388;51.078;13.740;2023-09-19T13:43:07;28.10;30.00
14604;DHT22;7388;51.078;13.740;2023-09-19T13:45:34;28.20;30.70
14604;DHT22;7388;51.078;13.740;2023-09-19T13:47:59;28.20;30.20
14604;DHT22;7388;51.078;13.740;2023-09-19T13:50:25;28.20;30.70
14604;DHT22;7388;51.078;13.740;2023-09-19T13:52:52;28.10;29.60
14604;DHT22;7388;51.078;13.740;2023-09-19T13:55:19;28.10;30.00
14604;DHT22;7388;51.078;13.740;2023-09-19T13:57:48;28.00;30.00
14604;DHT22;7388;51.078;13.740;2023-09-19T14:00:20;28.10;30.10
14604;DHT22;7388;51.078;13.740;2023-09-19T14:02:46;28.10;29.00
14604;DHT22;7388;51.078;13.740;2023-09-19T14:05:13;28.20;30.60
14604;DHT22;7388;51.078;13.740;2023-09-19T14:07:43;28.30;30.00
14604;DHT22;7388;51.078;13.740;2023-09-19T14:10:10;28.40;30.40
14604;DHT22;7388;51.078;13.740;2023-09-19T14:12:37;28.50;29.80
14604;DHT22;7388;51.078;13.740;2023-09-19T14:15:10;28.70;29.20
14604;DHT22;7388;51.078;13.740;2023-09-19T14:17:37;28.80;29.30
14604;DHT22;7388;51.078;13.740;2023-09-19T14:20:03;28.90;28.60
14604;DHT22;7388;51.078;13.740;2023-09-19T14:22:31;29.00;28.40
14604;DHT22;7388;51.078;13.740;2023-09-19T14:24:57;29.00;28.40
14604;DHT22;7388;51.078;13.740;2023-09-19T14:27:25;28.80;28.40
14604;DHT22;7388;51.078;13.740;2023-09-19T14:29:50;28.70;28.60
14604;DHT22;7388;51.078;13.740;2023-09-19T14:32:17;28.70;27.80
14604;DHT22;7388;51.078;13.740;2023-09-19T14:34:43;28.80;27.90
14604;DHT22;7388;51.078;13.740;2023-09-19T14:37:09;28.90;28.80
14604;DHT22;7388;51.078;13.740;2023-09-19T14:39:37;28.90;28.50
14604;DHT22;7388;51.078;13.740;2023-09-19T14:42:04;28.90;27.80
14604;DHT22;7388;51.078;13.740;2023-09-19T14:44:30;28.90;28.00
14604;DHT22;7388;51.078;13.740;2023-09-19T14:46:55;28.90;28.20
14604;DHT22;7388;51.078;13.740;2023-09-19T14:49:21;28.80;28.20
14604;DHT22;7388;51.078;13.740;2023-09-19T14:51:47;28.80;26.50
14604;DHT22;7388;51.078;13.740;2023-09-19T14:54:13;28.80;26.00
14604;DHT22;7388;51.078;13.740;2023-09-19T14:56:42;28.70;26.00
14604;DHT22;7388;51.078;13.740;2023-09-19T14:59:08;28.50;25.60
14604;DHT22;7388;51.078;13.740;2023-09-19T15:01:36;28.40;26.10
14604;DHT22;7388;51.078;13.740;2023-09-19T15:04:02;28.40;26.20
14604;DHT22;7388;51.078;13.740;2023-09-19T15:06:28;28.40;26.40
14604;DHT22;7388;51.078;13.740;2023-09-19T15:08:54;28.40;26.60
14604;DHT22;7388;51.078;13.740;2023-09-19T15:11:20;28.30;26.60
14604;DHT22;7388;51.078;13.740;2023-09-19T15:13:47;28.30;25.10
14604;DHT22;7388;51.078;13.740;2023-09-19T15:16:13;28.10;24.30
14604;DHT22;7388;51.078;13.740;2023-09-19T15:18:44;28.00;24.90
14604;DHT22;7388;51.078;13.740;2023-09-19T15:21:11;27.90;24.50
14604;DHT22;7388;51.078;13.740;2023-09-19T15:23:39;27.70;24.90
14604;DHT22;7388;51.078;13.740;2023-09-19T15:26:06;27.60;26.00
14604;DHT22;7388;51.078;13.740;2023-09-19T15:28:32;27.50;26.50
14604;DHT22;7388;51.078;13.740;2023-09-19T15:31:07;27.40;25.20
14604;DHT22;7388;51.078;13.740;2023-09-19T15:33:34;27.30;24.90
14604;DHT22;7388;51.078;13.740;2023-09-19T15:36:10;27.10;25.40
14604;DHT22;7388;51.078;13.740;2023-09-19T15:38:57;27.00;26.20
14604;DHT22;7388;51.078;13.740;2023-09-19T15:41:46;26.90;25.70
14604;DHT22;7388;51.078;13.740;2023-09-19T15:44:18;26.70;25.20
14604;DHT22;7388;51.078;13.740;2023-09-19T15:46:45;26.60;25.90
14604;DHT22;7388;51.078;13.740;2023-09-19T15:49:11;26.60;25.20
14604;DHT22;7388;51.078;13.740;2023-09-19T15:51:37;26.40;25.90
14604;DHT22;7388;51.078;13.740;2023-09-19T15:54:13;26.40;26.00
14604;DHT22;7388;51.078;13.740;2023-09-19T15:56:44;26.30;26.80
14604;DHT22;7388;51.078;13.740;2023-09-19T15:59:10;26.30;26.60
14604;DHT22;7388;51.078;13.740;2023-09-19T16:01:39;26.20;26.80
14604;DHT22;7388;51.078;13.740;2023-09-19T16:04:08;26.20;26.70
14604;DHT22;7388;51.078;13.740;2023-09-19T16:06:35;26.20;27.20
14604;DHT22;7388;51.078;13.740;2023-09-19T16:09:02;26.20;27.90
14604;DHT22;7388;51.078;13.740;2023-09-19T16:11:32;26.10;28.10
14604;DHT22;7388;51.078;13.740;2023-09-19T16:13:58;26.10;28.20
14604;DHT22;7388;51.078;13.740;2023-09-19T16:16:26;26.10;27.60
14604;DHT22;7388;51.078;13.740;2023-09-19T16:19:04;26.00;27.50
14604;DHT22;7388;51.078;13.740;2023-09-19T16:21:33;25.90;27.00
14604;DHT22;7388;51.078;13.740;2023-09-19T16:24:00;25.90;27.90